createdAt,value
2017-12-06T00:01:22.998Z,98.30
2017-12-06T00:03:51.418Z,98.10
2017-12-06T00:06:20.108Z,98.00
2017-12-06T00:08:48.799Z,98.00
2017-12-06T00:11:18.414Z,98.00
2017-12-06T00:13:52.358Z,98.00
2017-12-06T00:16:20.639Z,98.20
2017-12-06T00:18:48.955Z,98.30
2017-12-06T00:21:17.262Z,98.40
2017-12-06T00:23:45.568Z,98.30
2017-12-06T00:26:14.599Z,98.50
2017-12-06T00:28:42.860Z,98.50
2017-12-06T00:31:11.987Z,98.50
2017-12-06T00:33:40.247Z,98.50
2017-12-06T00:36:08.545Z,98.50
2017-12-06T00:38:36.799Z,98.40
2017-12-06T00:41:05.127Z,98.20
2017-12-06T00:43:33.380Z,98.10
2017-12-06T00:46:01.688Z,98.00
2017-12-06T00:48:29.940Z,98.00
2017-12-06T00:50:58.244Z,98.00
2017-12-06T00:53:26.514Z,97.90
2017-12-06T00:55:54.784Z,97.80
2017-12-06T00:58:23.022Z,97.80
2017-12-06T01:00:51.295Z,98.10
2017-12-06T01:03:19.605Z,98.10
2017-12-06T01:05:48.784Z,98.00
2017-12-06T01:08:17.018Z,97.90
2017-12-06T01:10:45.302Z,97.80
2017-12-06T01:13:13.576Z,97.70
2017-12-06T01:15:41.827Z,97.60
2017-12-06T01:18:10.972Z,97.70
2017-12-06T01:20:39.251Z,97.70
2017-12-06T01:23:07.616Z,97.70
2017-12-06T01:25:35.868Z,97.60
2017-12-06T01:28:05.006Z,97.70
2017-12-06T01:30:33.266Z,97.70
2017-12-06T01:33:01.534Z,97.80
2017-12-06T01:35:29.787Z,97.70
2017-12-06T01:37:58.068Z,97.80
2017-12-06T01:40:26.302Z,97.70
2017-12-06T01:42:54.612Z,97.80
2017-12-06T01:45:22.838Z,97.80
2017-12-06T01:47:51.111Z,97.90
2017-12-06T01:50:19.362Z,97.90
2017-12-06T01:52:47.635Z,98.00
2017-12-06T01:55:15.886Z,98.10
2017-12-06T01:57:44.179Z,97.90
2017-12-06T02:00:12.426Z,98.00
2017-12-06T02:02:40.734Z,98.00
2017-12-06T02:05:08.999Z,98.10
2017-12-06T02:07:37.300Z,98.20
2017-12-06T02:10:05.556Z,98.00
2017-12-06T02:12:33.842Z,98.10
2017-12-06T02:15:02.099Z,98.10
2017-12-06T02:17:30.416Z,98.00
2017-12-06T02:19:58.687Z,98.10
2017-12-06T02:22:26.943Z,98.10
2017-12-06T02:24:55.254Z,98.10
2017-12-06T02:27:23.508Z,98.20
2017-12-06T02:29:51.815Z,98.20
2017-12-06T02:32:20.066Z,98.10
2017-12-06T02:34:49.187Z,98.10
2017-12-06T02:37:17.442Z,98.10
2017-12-06T02:39:58.418Z,98.10
2017-12-06T02:42:39.450Z,98.30
2017-12-06T02:45:19.506Z,98.30
2017-12-06T02:47:47.761Z,98.20
2017-12-06T02:50:16.027Z,98.20
2017-12-06T02:52:44.387Z,98.10
2017-12-06T02:55:13.426Z,98.20
2017-12-06T02:57:41.671Z,98.20
2017-12-06T03:00:10.698Z,98.30
2017-12-06T03:02:38.956Z,98.30
2017-12-06T03:05:07.257Z,98.60
2017-12-06T03:07:35.526Z,98.30
2017-12-06T03:10:03.803Z,98.90
2017-12-06T03:12:32.050Z,98.50
2017-12-06T03:15:00.319Z,98.30
2017-12-06T03:17:28.578Z,98.30
2017-12-06T03:19:56.871Z,98.30
2017-12-06T03:22:25.150Z,98.30
2017-12-06T03:24:53.527Z,98.50
2017-12-06T03:27:21.794Z,98.60
2017-12-06T03:29:50.067Z,98.60
2017-12-06T03:32:19.150Z,98.50
2017-12-06T03:34:47.424Z,98.50
2017-12-06T03:37:15.668Z,98.40
2017-12-06T03:39:44.258Z,98.30
2017-12-06T03:42:13.054Z,98.20
2017-12-06T03:44:41.550Z,98.20
2017-12-06T03:47:10.603Z,98.40
2017-12-06T03:49:38.863Z,98.40
2017-12-06T03:52:08.222Z,98.50
2017-12-06T03:54:37.626Z,98.50
2017-12-06T03:57:06.786Z,98.30
2017-12-06T03:59:35.544Z,98.30
2017-12-06T04:02:04.214Z,98.30
2017-12-06T04:04:33.619Z,98.40
2017-12-06T04:07:02.999Z,98.30
2017-12-06T04:09:31.280Z,98.30
2017-12-06T04:11:59.538Z,98.40
2017-12-06T04:14:27.796Z,98.40
2017-12-06T04:16:56.831Z,98.20
2017-12-06T04:19:25.958Z,98.20
2017-12-06T04:21:54.322Z,98.20
2017-12-06T04:24:22.590Z,98.30
2017-12-06T04:26:50.846Z,98.30
2017-12-06T04:29:19.091Z,98.50
2017-12-06T04:31:47.357Z,98.40
2017-12-06T04:34:15.611Z,98.40
2017-12-06T04:36:43.876Z,98.40
2017-12-06T04:39:12.140Z,98.40
2017-12-06T04:41:41.183Z,98.50
2017-12-06T04:44:09.428Z,98.50
2017-12-06T04:46:37.704Z,98.40
2017-12-06T04:49:05.973Z,98.20
2017-12-06T04:51:34.990Z,98.00
2017-12-06T04:54:03.307Z,98.00
2017-12-06T04:56:31.550Z,98.10
2017-12-06T04:58:59.822Z,98.00
2017-12-06T05:01:28.128Z,98.10
2017-12-06T05:03:56.399Z,98.00
2017-12-06T05:06:24.650Z,97.80
2017-12-06T05:08:53.690Z,97.80
2017-12-06T05:11:21.944Z,97.90
2017-12-06T05:13:50.249Z,97.90
2017-12-06T05:16:18.497Z,97.80
2017-12-06T05:18:46.810Z,97.90
2017-12-06T05:21:15.068Z,97.90
2017-12-06T05:23:43.329Z,97.80
2017-12-06T05:26:12.343Z,97.50
2017-12-06T05:28:40.616Z,97.50
2017-12-06T05:31:08.873Z,97.50
2017-12-06T05:33:38.753Z,97.70
2017-12-06T05:36:07.003Z,97.70
2017-12-06T05:38:35.282Z,97.80
2017-12-06T05:41:03.543Z,97.80
2017-12-06T05:43:32.582Z,97.50
2017-12-06T05:46:00.829Z,97.40
2017-12-06T05:48:29.154Z,97.50
2017-12-06T05:50:58.244Z,97.10
2017-12-06T05:53:26.535Z,97.10
2017-12-06T05:55:54.819Z,97.00
2017-12-06T05:58:23.070Z,97.00
2017-12-06T06:00:51.351Z,96.90
2017-12-06T06:03:19.699Z,96.80
2017-12-06T06:05:48.753Z,96.80
2017-12-06T06:08:17.006Z,96.80
2017-12-06T06:10:45.272Z,96.80
2017-12-06T06:13:14.287Z,96.80
2017-12-06T06:15:42.558Z,96.80
2017-12-06T06:18:10.847Z,96.90
2017-12-06T06:20:39.119Z,96.90
2017-12-06T06:23:07.369Z,96.80
2017-12-06T06:25:36.118Z,96.90
2017-12-06T06:28:04.378Z,96.90
2017-12-06T06:30:32.650Z,97.00
2017-12-06T06:33:01.014Z,97.20
2017-12-06T06:35:29.384Z,97.30
2017-12-06T06:37:57.739Z,97.50
2017-12-06T06:40:26.049Z,97.40
2017-12-06T06:42:54.346Z,97.40
2017-12-06T06:45:22.679Z,97.50
2017-12-06T06:47:50.952Z,97.50
2017-12-06T06:50:19.275Z,97.50
2017-12-06T06:52:48.286Z,98.00
2017-12-06T06:55:17.346Z,97.70
2017-12-06T06:57:45.652Z,97.80
2017-12-06T07:00:14.208Z,97.70
2017-12-06T07:02:42.446Z,97.70
2017-12-06T07:05:11.469Z,97.90
2017-12-06T07:07:39.730Z,97.90
2017-12-06T07:10:08.739Z,97.80
2017-12-06T07:12:37.006Z,97.80
2017-12-06T07:15:05.277Z,98.10
2017-12-06T07:17:34.378Z,98.00
2017-12-06T07:20:03.390Z,97.80
2017-12-06T07:22:31.735Z,97.70
2017-12-06T07:24:59.984Z,97.80
2017-12-06T07:27:28.247Z,97.80
2017-12-06T07:29:56.549Z,97.60
2017-12-06T07:32:24.821Z,97.50
2017-12-06T07:34:53.066Z,97.40
2017-12-06T07:37:22.098Z,97.30
2017-12-06T07:39:50.416Z,97.30
2017-12-06T07:42:18.654Z,97.40
2017-12-06T07:44:46.911Z,97.40
2017-12-06T07:47:15.191Z,97.30
2017-12-06T07:49:43.517Z,97.30
2017-12-06T07:52:11.918Z,97.40
2017-12-06T07:54:40.991Z,97.30
2017-12-06T07:57:09.412Z,97.40
2017-12-06T07:59:37.653Z,97.30
2017-12-06T08:02:06.459Z,97.40
2017-12-06T08:04:34.715Z,97.20
2017-12-06T08:07:02.988Z,97.00
2017-12-06T08:09:31.235Z,97.00
2017-12-06T08:12:00.287Z,97.10
2017-12-06T08:14:28.546Z,97.10
2017-12-06T08:16:56.853Z,97.00
2017-12-06T08:19:25.123Z,96.90
2017-12-06T08:21:53.380Z,96.80
2017-12-06T08:24:22.021Z,96.50
2017-12-06T08:26:50.318Z,96.50
2017-12-06T08:29:19.371Z,96.30
2017-12-06T08:31:47.656Z,96.30
2017-12-06T08:34:15.906Z,96.30
2017-12-06T08:36:44.175Z,96.30
2017-12-06T08:39:13.177Z,96.20
2017-12-06T08:41:41.794Z,96.20
2017-12-06T08:44:10.033Z,96.20
2017-12-06T08:46:39.061Z,95.90
2017-12-06T08:49:07.315Z,95.80
2017-12-06T08:51:36.347Z,95.80
2017-12-06T08:54:04.636Z,95.80
2017-12-06T08:56:33.024Z,95.60
2017-12-06T08:59:02.190Z,95.60
2017-12-06T09:01:30.499Z,95.50
2017-12-06T09:03:59.215Z,95.40
2017-12-06T09:06:27.891Z,95.50
2017-12-06T09:08:57.312Z,95.80
2017-12-06T09:11:26.616Z,95.90
2017-12-06T09:13:54.850Z,95.80
2017-12-06T09:16:23.125Z,95.90
2017-12-06T09:18:51.422Z,95.90
2017-12-06T09:21:19.682Z,96.00
2017-12-06T09:23:47.935Z,96.10
2017-12-06T09:26:16.964Z,96.10
2017-12-06T09:28:45.229Z,96.10
2017-12-06T09:31:14.263Z,96.20
2017-12-06T09:33:42.688Z,96.20
2017-12-06T09:36:11.234Z,96.20
2017-12-06T09:38:39.488Z,96.20
2017-12-06T09:41:07.734Z,96.10
2017-12-06T09:43:36.082Z,96.10
2017-12-06T09:46:05.346Z,96.10
2017-12-06T09:48:34.389Z,95.90
2017-12-06T09:51:02.675Z,95.90
2017-12-06T09:53:30.958Z,96.10
2017-12-06T09:55:59.286Z,95.90
2017-12-06T09:58:28.301Z,96.10
2017-12-06T10:00:56.555Z,96.10
2017-12-06T10:03:25.606Z,96.10
2017-12-06T10:05:53.862Z,96.10
2017-12-06T10:08:22.129Z,96.10
2017-12-06T10:10:51.143Z,96.30
2017-12-06T10:13:19.410Z,96.30
2017-12-06T10:15:47.756Z,96.30
2017-12-06T10:18:16.111Z,96.10
2017-12-06T10:20:44.413Z,96.10
2017-12-06T10:23:12.622Z,95.80
2017-12-06T10:25:41.666Z,95.60
2017-12-06T10:28:10.034Z,95.60
2017-12-06T10:30:38.329Z,95.30
2017-12-06T10:33:07.540Z,95.20
2017-12-06T10:35:35.808Z,95.10
2017-12-06T10:38:04.080Z,95.20
2017-12-06T10:40:32.372Z,95.30
2017-12-06T10:43:00.661Z,95.30
2017-12-06T10:45:28.945Z,95.40
2017-12-06T10:47:57.181Z,95.50
2017-12-06T10:50:25.503Z,95.50
2017-12-06T10:52:53.770Z,95.40
2017-12-06T10:55:22.029Z,95.70
2017-12-06T10:57:50.278Z,95.60
2017-12-06T11:00:18.545Z,95.60
2017-12-06T11:02:46.811Z,95.70
2017-12-06T11:05:15.082Z,95.60
2017-12-06T11:07:43.338Z,95.50
2017-12-06T11:10:11.611Z,95.20
2017-12-06T11:12:40.641Z,95.30
2017-12-06T11:15:08.949Z,95.30
2017-12-06T11:17:37.231Z,95.50
2017-12-06T11:20:05.540Z,95.40
2017-12-06T11:22:34.567Z,95.00
2017-12-06T11:25:02.870Z,95.30
2017-12-06T11:27:31.117Z,95.00
2017-12-06T11:29:59.422Z,95.10
2017-12-06T11:32:27.666Z,94.80
2017-12-06T11:34:56.701Z,94.40
2017-12-06T11:37:24.942Z,94.40
2017-12-06T11:39:53.214Z,94.70
2017-12-06T11:42:22.246Z,94.50
2017-12-06T11:44:50.502Z,94.50
2017-12-06T11:47:18.794Z,94.50
2017-12-06T11:49:47.062Z,94.60
2017-12-06T11:52:15.331Z,94.50
2017-12-06T11:54:44.358Z,94.60
2017-12-06T11:57:12.623Z,94.60
2017-12-06T11:59:40.883Z,94.50
2017-12-06T12:02:09.155Z,94.70
2017-12-06T12:04:37.438Z,94.50
2017-12-06T12:07:05.784Z,94.50
2017-12-06T12:09:34.067Z,94.50
2017-12-06T12:12:02.352Z,94.60
2017-12-06T12:14:30.676Z,94.70
2017-12-06T12:16:59.723Z,94.90
2017-12-06T12:19:27.980Z,94.90
2017-12-06T12:21:56.266Z,94.80
2017-12-06T12:24:24.527Z,94.60
2017-12-06T12:26:52.871Z,94.60
2017-12-06T12:29:21.153Z,94.80
2017-12-06T12:31:49.422Z,94.80
2017-12-06T12:34:17.674Z,95.00
2017-12-06T12:36:45.961Z,95.40
2017-12-06T12:39:14.242Z,95.50
2017-12-06T12:41:42.588Z,95.00
2017-12-06T12:44:11.602Z,95.30
2017-12-06T12:46:39.890Z,95.30
2017-12-06T12:49:08.186Z,95.40
2017-12-06T12:51:36.442Z,95.30
2017-12-06T12:54:04.706Z,95.40
2017-12-06T12:56:33.729Z,95.40
2017-12-06T12:59:02.009Z,95.40
2017-12-06T13:01:30.266Z,95.20
2017-12-06T13:03:59.410Z,95.30
2017-12-06T13:06:27.667Z,95.30
2017-12-06T13:08:55.962Z,95.30
2017-12-06T13:11:24.211Z,95.40
2017-12-06T13:13:52.531Z,95.50
2017-12-06T13:16:20.854Z,95.60
2017-12-06T13:18:49.112Z,95.70
2017-12-06T13:21:17.373Z,95.40
2017-12-06T13:23:45.635Z,95.60
2017-12-06T13:26:13.930Z,95.60
2017-12-06T13:28:42.170Z,95.40
2017-12-06T13:31:11.511Z,95.60
2017-12-06T13:33:39.930Z,95.70
2017-12-06T13:36:08.229Z,95.80
2017-12-06T13:38:36.564Z,95.60
2017-12-06T13:41:04.833Z,95.60
2017-12-06T13:43:33.097Z,95.60
2017-12-06T13:46:01.395Z,95.70
2017-12-06T13:48:29.689Z,95.70
2017-12-06T13:50:57.938Z,95.70
2017-12-06T13:53:26.211Z,95.90
2017-12-06T13:55:54.601Z,95.70
2017-12-06T13:58:22.876Z,95.70
2017-12-06T14:00:51.881Z,95.80
2017-12-06T14:03:20.162Z,95.80
2017-12-06T14:05:48.409Z,95.60
2017-12-06T14:08:16.766Z,95.50
2017-12-06T14:10:45.134Z,95.50
2017-12-06T14:13:13.405Z,95.70
2017-12-06T14:15:41.764Z,95.60
2017-12-06T14:18:10.807Z,95.50
2017-12-06T14:20:39.074Z,95.50
2017-12-06T14:23:07.367Z,95.50
2017-12-06T14:25:35.636Z,95.50
2017-12-06T14:28:03.902Z,95.70
2017-12-06T14:30:32.179Z,95.60
2017-12-06T14:33:00.430Z,95.60
2017-12-06T14:35:29.463Z,95.70
2017-12-06T14:37:58.004Z,95.70
2017-12-06T14:40:27.339Z,95.70
2017-12-06T14:42:55.567Z,95.70
2017-12-06T14:45:23.843Z,95.70
2017-12-06T14:47:52.110Z,95.70
2017-12-06T14:50:20.481Z,95.80
2017-12-06T14:52:48.798Z,95.80
2017-12-06T14:55:17.159Z,95.70
2017-12-06T14:57:45.424Z,95.50
2017-12-06T15:00:13.698Z,95.70
2017-12-06T15:02:42.014Z,95.70
2017-12-06T15:05:10.291Z,95.80
2017-12-06T15:07:38.543Z,96.10
2017-12-06T15:10:06.879Z,96.60
2017-12-06T15:12:37.794Z,96.80
2017-12-06T15:15:03.515Z,96.90
2017-12-06T15:17:31.800Z,97.10
2017-12-06T15:20:00.058Z,97.20
2017-12-06T15:22:28.379Z,97.30
2017-12-06T15:24:56.634Z,97.40
2017-12-06T15:27:24.892Z,97.50
2017-12-06T15:29:53.198Z,97.70
2017-12-06T15:32:21.457Z,97.80
2017-12-06T15:34:49.806Z,97.90
2017-12-06T15:37:18.184Z,98.10
2017-12-06T15:39:46.432Z,98.50
2017-12-06T15:42:14.719Z,98.20
2017-12-06T15:44:43.761Z,98.30
2017-12-06T15:47:13.324Z,98.50
2017-12-06T15:49:41.912Z,98.50
2017-12-06T15:52:10.175Z,98.40
2017-12-06T15:54:38.462Z,98.50
2017-12-06T15:57:06.739Z,98.60
2017-12-06T15:59:35.008Z,98.70
2017-12-06T16:02:03.313Z,98.80
2017-12-06T16:04:31.577Z,98.90
2017-12-06T16:06:59.875Z,98.90
2017-12-06T16:09:28.134Z,98.90
2017-12-06T16:11:56.447Z,98.90
2017-12-06T16:14:24.690Z,98.90
2017-12-06T16:16:52.981Z,98.90
2017-12-06T16:19:21.236Z,98.80
2017-12-06T16:21:50.378Z,98.90
2017-12-06T16:24:18.637Z,98.80
2017-12-06T16:26:46.942Z,98.80
2017-12-06T16:29:15.197Z,98.90
2017-12-06T16:31:43.530Z,98.90
2017-12-06T16:34:11.787Z,99.10
2017-12-06T16:36:51.866Z,99.00
2017-12-06T16:39:20.133Z,99.20
2017-12-06T16:41:48.427Z,99.10
2017-12-06T16:44:16.703Z,99.10
2017-12-06T16:46:44.946Z,99.20
2017-12-06T16:49:13.218Z,99.10
2017-12-06T16:51:41.514Z,99.10
2017-12-06T16:54:09.794Z,99.10
2017-12-06T16:56:38.203Z,99.20
2017-12-06T16:59:06.557Z,99.10
2017-12-06T17:01:34.854Z,99.10
2017-12-06T17:04:03.133Z,98.90
2017-12-06T17:06:31.404Z,99.00
2017-12-06T17:08:59.660Z,99.10
2017-12-06T17:11:27.950Z,99.10
2017-12-06T17:13:56.770Z,99.10
2017-12-06T17:16:25.193Z,99.20
2017-12-06T17:18:53.446Z,99.20
2017-12-06T17:21:21.786Z,99.10
2017-12-06T17:23:50.458Z,99.30
2017-12-06T17:26:19.184Z,99.30
2017-12-06T17:28:59.685Z,99.50
2017-12-06T17:31:41.611Z,99.40
2017-12-06T17:34:10.165Z,99.30
2017-12-06T17:36:38.479Z,99.30
2017-12-06T17:39:07.502Z,99.20
2017-12-06T17:41:35.752Z,99.20
2017-12-06T17:44:04.791Z,99.30
2017-12-06T17:46:33.051Z,99.30
2017-12-06T17:49:02.082Z,99.20
2017-12-06T17:51:30.343Z,99.20
2017-12-06T17:53:58.606Z,99.20
2017-12-06T17:56:28.393Z,99.20
2017-12-06T17:58:57.899Z,99.10
2017-12-06T18:01:26.274Z,99.10
2017-12-06T18:03:54.773Z,99.20
2017-12-06T18:06:23.934Z,98.90
2017-12-06T18:08:52.231Z,98.90
2017-12-06T18:11:20.555Z,99.10
2017-12-06T18:13:51.273Z,99.10
2017-12-06T18:16:20.269Z,99.10
2017-12-06T18:18:48.962Z,99.30
2017-12-06T18:21:23.278Z,98.90
2017-12-06T18:23:51.939Z,98.80
2017-12-06T18:26:20.872Z,99.10
2017-12-06T18:28:49.270Z,98.80
2017-12-06T18:31:17.893Z,98.80
2017-12-06T18:33:47.044Z,98.60
2017-12-06T18:36:15.334Z,98.60
2017-12-06T18:38:45.125Z,98.70
2017-12-06T18:41:13.388Z,98.60
2017-12-06T18:43:41.715Z,98.60
2017-12-06T18:46:10.750Z,98.60
2017-12-06T18:48:39.002Z,98.60
2017-12-06T18:51:08.033Z,98.60
2017-12-06T18:53:36.288Z,98.60
2017-12-06T18:56:05.314Z,98.40
2017-12-06T18:58:33.572Z,98.40
2017-12-06T19:01:01.863Z,98.40
2017-12-06T19:03:30.119Z,98.40
2017-12-06T19:05:59.171Z,98.20
2017-12-06T19:08:27.450Z,98.20
2017-12-06T19:10:55.731Z,98.20
2017-12-06T19:13:24.024Z,98.30
2017-12-06T19:15:52.269Z,98.30
2017-12-06T19:18:20.555Z,98.10
2017-12-06T19:20:48.832Z,98.00
2017-12-06T19:23:17.110Z,98.00
2017-12-06T19:25:45.363Z,98.20
2017-12-06T19:28:13.678Z,98.10
2017-12-06T19:30:41.927Z,98.10
2017-12-06T19:33:10.972Z,97.90
2017-12-06T19:35:39.247Z,97.90
2017-12-06T19:38:07.561Z,97.90
2017-12-06T19:40:36.050Z,98.20
2017-12-06T19:43:04.462Z,97.90
2017-12-06T19:45:33.122Z,98.10
2017-12-06T19:48:02.631Z,97.90
2017-12-06T19:50:32.038Z,97.90
2017-12-06T19:53:01.189Z,97.80
2017-12-06T19:55:29.624Z,97.70
2017-12-06T19:57:57.998Z,97.80
2017-12-06T20:00:26.252Z,97.80
2017-12-06T20:02:54.550Z,97.80
2017-12-06T20:05:22.824Z,97.70
2017-12-06T20:07:51.098Z,97.70
2017-12-06T20:10:19.390Z,97.70
2017-12-06T20:12:47.670Z,97.80
2017-12-06T20:15:17.006Z,97.60
2017-12-06T20:17:45.271Z,97.70
2017-12-06T20:20:13.525Z,98.00
2017-12-06T20:22:41.831Z,97.60
2017-12-06T20:25:10.902Z,97.40
2017-12-06T20:27:39.162Z,97.40
2017-12-06T20:30:07.463Z,97.50
2017-12-06T20:32:35.731Z,97.50
2017-12-06T20:35:04.015Z,97.40
2017-12-06T20:37:32.258Z,97.30
2017-12-06T20:40:01.338Z,97.10
2017-12-06T20:42:30.360Z,97.00
2017-12-06T20:44:59.404Z,97.00
2017-12-06T20:47:27.715Z,97.00
2017-12-06T20:49:55.966Z,96.80
2017-12-06T20:52:24.215Z,97.00
2017-12-06T20:54:52.552Z,97.00
2017-12-06T20:57:20.809Z,97.10
2017-12-06T20:59:49.081Z,97.10
2017-12-06T21:02:17.334Z,97.10
2017-12-06T21:04:45.602Z,97.20
2017-12-06T21:07:14.629Z,97.20
2017-12-06T21:09:42.895Z,97.20
2017-12-06T21:12:11.147Z,97.30
2017-12-06T21:14:40.245Z,97.30
2017-12-06T21:17:09.256Z,97.40
2017-12-06T21:19:38.279Z,97.20
2017-12-06T21:22:06.541Z,97.20
2017-12-06T21:24:35.565Z,97.10
2017-12-06T21:27:03.824Z,97.10
2017-12-06T21:29:32.099Z,97.00
2017-12-06T21:32:00.359Z,97.00
2017-12-06T21:34:29.393Z,97.20
2017-12-06T21:36:57.653Z,97.10
2017-12-06T21:39:25.966Z,97.30
2017-12-06T21:41:54.234Z,97.40
2017-12-06T21:44:22.815Z,97.50
2017-12-06T21:46:51.074Z,97.90
2017-12-06T21:49:20.111Z,97.60
2017-12-06T21:51:48.375Z,97.60
2017-12-06T21:54:16.649Z,97.60
2017-12-06T21:56:45.003Z,97.70
2017-12-06T21:59:14.039Z,97.70
2017-12-06T22:01:42.306Z,97.70
2017-12-06T22:04:10.850Z,97.70
2017-12-06T22:06:39.333Z,97.80
2017-12-06T22:09:07.920Z,97.80
2017-12-06T22:11:36.255Z,97.90
2017-12-06T22:14:04.506Z,98.00
2017-12-06T22:16:33.658Z,97.90
2017-12-06T22:19:01.918Z,97.90
2017-12-06T22:21:30.180Z,97.90
2017-12-06T22:23:58.426Z,97.90
2017-12-06T22:26:26.770Z,98.00
2017-12-06T22:28:55.046Z,98.00
2017-12-06T22:31:23.466Z,98.00
2017-12-06T22:33:51.695Z,98.00
2017-12-06T22:36:20.003Z,98.00
2017-12-06T22:38:48.279Z,98.20
2017-12-06T22:41:16.563Z,98.00
2017-12-06T22:43:44.838Z,98.10
2017-12-06T22:46:13.923Z,98.20
2017-12-06T22:48:42.172Z,98.20
2017-12-06T22:51:10.588Z,98.20
2017-12-06T22:53:39.678Z,98.30
2017-12-06T22:56:07.938Z,98.30
2017-12-06T22:58:36.462Z,98.20
2017-12-06T23:01:04.715Z,98.30
2017-12-06T23:03:32.980Z,98.30
2017-12-06T23:06:01.989Z,98.40
2017-12-06T23:08:30.265Z,98.40
2017-12-06T23:10:59.304Z,98.50
2017-12-06T23:13:27.558Z,98.50
2017-12-06T23:15:55.823Z,98.60
2017-12-06T23:18:24.095Z,98.70
2017-12-06T23:20:53.130Z,98.70
2017-12-06T23:23:21.417Z,98.70
2017-12-06T23:25:49.684Z,98.70
2017-12-06T23:28:17.963Z,98.70
2017-12-06T23:30:46.260Z,98.70
2017-12-06T23:33:14.550Z,98.70
2017-12-06T23:35:43.690Z,98.70
2017-12-06T23:38:12.749Z,98.80
2017-12-06T23:40:41.001Z,98.80
2017-12-06T23:43:09.257Z,98.90
2017-12-06T23:45:37.569Z,99.00
2017-12-06T23:48:05.817Z,98.90
2017-12-06T23:50:34.857Z,98.70
2017-12-06T23:53:03.106Z,98.70
2017-12-06T23:55:31.379Z,98.60
2017-12-06T23:57:59.641Z,98.60
